createdAt,value
2018-04-16T00:02:32.803Z,11.17
2018-04-16T00:05:35.268Z,11.04
2018-04-16T00:08:37.758Z,10.94
2018-04-16T00:11:40.193Z,10.87
2018-04-16T00:14:42.688Z,10.82
2018-04-16T00:17:45.117Z,10.78
2018-04-16T00:20:47.592Z,10.77
2018-04-16T00:23:50.025Z,10.71
2018-04-16T00:26:52.540Z,10.69
2018-04-16T00:29:55.126Z,10.70
2018-04-16T00:33:03.202Z,10.69
2018-04-16T00:36:11.257Z,10.68
2018-04-16T00:39:19.438Z,10.68
2018-04-16T00:42:27.619Z,10.66
2018-04-16T00:49:22.474Z,10.75
2018-04-16T00:52:30.511Z,10.68
2018-04-16T00:55:38.636Z,10.59
2018-04-16T00:58:46.780Z,10.53
2018-04-16T01:01:54.915Z,10.50
2018-04-16T01:05:03.145Z,10.49
2018-04-16T01:08:11.311Z,10.70
2018-04-16T01:11:19.439Z,11.23
2018-04-16T01:14:27.499Z,11.41
2018-04-16T01:17:35.644Z,11.48
2018-04-16T01:20:43.691Z,11.47
2018-04-16T01:23:51.680Z,11.43
2018-04-16T01:27:11.951Z,11.19
2018-04-16T01:30:19.912Z,11.02
2018-04-16T01:33:43.207Z,10.98
2018-04-16T01:37:01.325Z,11.12
2018-04-16T01:40:23.611Z,11.11
2018-04-16T01:43:31.702Z,10.94
2018-04-16T01:46:39.813Z,10.82
2018-04-16T01:49:47.815Z,10.81
2018-04-16T01:52:55.942Z,10.93
2018-04-16T01:56:04.120Z,11.11
2018-04-16T01:59:12.334Z,11.22
2018-04-16T02:02:20.542Z,11.26
2018-04-16T02:05:28.621Z,11.26
2018-04-16T02:08:36.733Z,11.17
2018-04-16T02:11:44.840Z,11.04
2018-04-16T02:14:52.787Z,11.01
2018-04-16T02:18:00.845Z,11.01
2018-04-16T02:21:09.052Z,11.02
2018-04-16T02:24:17.125Z,11.08
2018-04-16T02:27:25.250Z,11.22
2018-04-16T02:30:33.368Z,11.25
2018-04-16T02:33:41.360Z,11.24
2018-04-16T02:36:49.349Z,11.11
2018-04-16T02:39:57.550Z,10.99
2018-04-16T02:43:05.549Z,10.89
2018-04-16T02:46:13.616Z,10.94
2018-04-16T02:49:21.837Z,11.04
2018-04-16T02:52:29.929Z,11.00
2018-04-16T02:55:37.995Z,11.03
2018-04-16T02:58:46.086Z,11.07
2018-04-16T03:01:54.145Z,11.12
2018-04-16T03:05:02.261Z,11.13
2018-04-16T03:08:10.383Z,11.01
2018-04-16T03:11:18.529Z,10.88
2018-04-16T03:14:26.638Z,10.94
2018-04-16T03:17:34.752Z,11.03
2018-04-16T03:20:52.058Z,11.10
2018-04-16T03:24:00.152Z,11.00
2018-04-16T03:27:08.174Z,10.90
2018-04-16T03:30:16.196Z,10.85
2018-04-16T03:33:24.382Z,10.80
2018-04-16T03:36:32.549Z,10.60
2018-04-16T03:39:40.726Z,10.64
2018-04-16T03:42:48.729Z,10.64
2018-04-16T03:45:56.884Z,10.63
2018-04-16T03:49:05.109Z,10.68
2018-04-16T03:52:13.134Z,10.74
2018-04-16T03:55:36.459Z,10.79
2018-04-16T03:58:38.928Z,11.09
2018-04-16T04:01:41.555Z,11.07
2018-04-16T04:04:43.985Z,11.13
2018-04-16T04:07:46.484Z,11.25
2018-04-16T04:10:48.963Z,11.33
2018-04-16T04:13:51.489Z,11.36
2018-04-16T04:16:54.000Z,11.38
2018-04-16T04:19:56.528Z,11.49
2018-04-16T04:23:10.889Z,11.48
2018-04-16T04:26:25.185Z,11.43
2018-04-16T04:29:39.444Z,11.48
2018-04-16T04:32:41.889Z,11.52
2018-04-16T04:35:44.378Z,11.46
2018-04-16T04:38:46.856Z,11.38
2018-04-16T04:41:49.363Z,11.40
2018-04-16T04:44:51.925Z,11.34
2018-04-16T04:47:54.425Z,11.31
2018-04-16T04:50:56.868Z,11.34
2018-04-16T04:53:59.359Z,11.42
2018-04-16T04:57:01.905Z,11.51
2018-04-16T05:00:04.350Z,11.56
2018-04-16T05:03:06.818Z,11.74
2018-04-16T05:06:09.325Z,11.78
2018-04-16T05:09:11.839Z,11.85
2018-04-16T05:12:14.479Z,11.96
2018-04-16T05:15:16.948Z,12.04
2018-04-16T05:18:19.432Z,12.07
2018-04-16T05:21:21.894Z,12.17
2018-04-16T05:24:24.400Z,12.32
2018-04-16T05:27:26.864Z,12.38
2018-04-16T05:30:29.432Z,12.58
2018-04-16T05:33:31.884Z,12.85
2018-04-16T05:36:34.365Z,12.96
2018-04-16T05:39:36.841Z,13.31
2018-04-16T05:42:39.347Z,13.52
2018-04-16T05:45:41.851Z,14.19
2018-04-16T05:48:44.320Z,15.07
2018-04-16T05:51:46.810Z,15.24
2018-04-16T05:54:49.289Z,15.25
2018-04-16T05:57:51.797Z,14.93
2018-04-16T06:00:54.316Z,15.32
2018-04-16T06:03:56.820Z,15.89
2018-04-16T06:06:59.365Z,16.11
2018-04-16T06:10:01.888Z,17.22
2018-04-16T06:13:04.401Z,17.64
2018-04-16T06:16:06.907Z,17.63
2018-04-16T06:19:09.428Z,17.78
2018-04-16T06:22:11.945Z,17.35
2018-04-16T06:25:14.439Z,16.88
2018-04-16T06:28:16.899Z,16.57
2018-04-16T06:31:19.384Z,16.29
2018-04-16T06:34:21.890Z,16.21
2018-04-16T06:37:24.345Z,16.56
2018-04-16T06:40:26.853Z,17.17
2018-04-16T06:43:29.416Z,17.33
2018-04-16T06:46:31.915Z,17.25
2018-04-16T06:49:34.451Z,17.21
2018-04-16T06:52:37.030Z,17.33
2018-04-16T06:55:39.494Z,16.92
2018-04-16T06:58:42.065Z,16.77
2018-04-16T07:01:44.570Z,16.66
2018-04-16T07:04:47.158Z,15.91
2018-04-16T07:07:49.688Z,16.31
2018-04-16T07:10:52.175Z,16.29
2018-04-16T07:13:54.746Z,16.64
2018-04-16T07:16:57.254Z,16.41
2018-04-16T07:19:59.749Z,16.66
2018-04-16T07:23:02.327Z,16.24
2018-04-16T07:26:04.777Z,16.20
2018-04-16T07:29:07.293Z,16.74
2018-04-16T07:32:09.808Z,15.82
2018-04-16T07:35:12.369Z,15.95
2018-04-16T07:38:14.865Z,16.05
2018-04-16T07:41:17.390Z,15.98
2018-04-16T07:44:19.903Z,16.13
2018-04-16T07:47:22.385Z,15.72
2018-04-16T07:50:24.980Z,15.70
2018-04-16T07:53:27.469Z,15.86
2018-04-16T07:56:30.003Z,16.13
2018-04-16T07:59:32.518Z,15.83
2018-04-16T08:02:34.953Z,16.26
2018-04-16T08:05:37.463Z,16.49
2018-04-16T08:08:39.987Z,16.51
2018-04-16T08:11:42.553Z,16.98
2018-04-16T08:14:45.083Z,17.07
2018-04-16T08:17:47.558Z,17.07
2018-04-16T08:20:50.060Z,17.13
2018-04-16T08:23:52.551Z,16.82
2018-04-16T08:26:55.089Z,16.77
2018-04-16T08:29:57.596Z,16.96
2018-04-16T08:33:00.093Z,17.10
2018-04-16T08:36:02.544Z,17.31
2018-04-16T08:39:05.899Z,17.36
2018-04-16T08:42:08.397Z,17.21
2018-04-16T08:45:11.012Z,17.35
2018-04-16T08:48:13.467Z,17.47
2018-04-16T08:51:15.977Z,17.40
2018-04-16T08:54:18.468Z,16.92
2018-04-16T08:57:20.975Z,17.09
2018-04-16T09:00:23.531Z,17.47
2018-04-16T09:03:26.106Z,17.34
2018-04-16T09:06:28.592Z,16.99
2018-04-16T09:09:31.076Z,17.24
2018-04-16T09:12:33.551Z,17.35
2018-04-16T09:15:36.020Z,17.59
2018-04-16T09:18:38.565Z,17.56
2018-04-16T09:21:41.084Z,17.76
2018-04-16T09:24:43.593Z,17.97
2018-04-16T09:27:46.057Z,17.54
2018-04-16T09:30:48.636Z,17.52
2018-04-16T09:33:51.103Z,17.60
2018-04-16T09:36:53.588Z,17.61
2018-04-16T09:39:56.079Z,17.79
2018-04-16T09:42:58.561Z,17.56
2018-04-16T09:46:01.101Z,18.12
2018-04-16T09:49:03.608Z,18.43
2018-04-16T09:52:06.122Z,18.14
2018-04-16T09:55:08.617Z,18.56
2018-04-16T09:58:11.123Z,18.36
2018-04-16T10:01:19.295Z,18.41
2018-04-16T10:04:21.779Z,18.12
2018-04-16T10:07:24.287Z,18.57
2018-04-16T10:10:26.771Z,18.28
2018-04-16T10:13:32.551Z,18.42
2018-04-16T10:16:35.207Z,18.14
2018-04-16T10:19:37.834Z,18.09
2018-04-16T10:22:40.351Z,18.56
2018-04-16T10:25:42.807Z,19.25
2018-04-16T10:28:45.319Z,19.21
2018-04-16T10:31:47.809Z,19.58
2018-04-16T10:34:50.308Z,19.30
2018-04-16T10:37:52.807Z,19.83
2018-04-16T10:40:55.262Z,20.45
2018-04-16T10:43:57.783Z,20.92
2018-04-16T10:47:00.267Z,21.15
2018-04-16T10:50:02.764Z,20.56
2018-04-16T10:53:05.229Z,19.25
2018-04-16T10:56:07.729Z,19.01
2018-04-16T10:59:10.344Z,18.72
2018-04-16T11:02:12.872Z,18.30
2018-04-16T11:05:15.324Z,18.46
2018-04-16T11:08:17.823Z,18.36
2018-04-16T11:11:20.328Z,18.35
2018-04-16T11:14:22.837Z,18.93
2018-04-16T11:17:25.444Z,19.61
2018-04-16T11:20:27.917Z,19.09
2018-04-16T11:23:30.432Z,18.98
2018-04-16T11:26:32.964Z,19.25
2018-04-16T11:29:35.422Z,19.28
2018-04-16T11:32:37.920Z,18.76
2018-04-16T11:35:40.417Z,18.69
2018-04-16T11:38:43.093Z,18.41
2018-04-16T11:41:45.612Z,18.87
2018-04-16T11:44:48.450Z,18.61
2018-04-16T11:47:50.964Z,18.77
2018-04-16T11:50:53.487Z,18.80
2018-04-16T11:53:56.052Z,18.82
2018-04-16T11:56:58.617Z,19.10
2018-04-16T12:00:01.073Z,18.88
2018-04-16T12:03:04.456Z,18.81
2018-04-16T12:06:06.974Z,18.72
2018-04-16T12:09:09.526Z,18.73
2018-04-16T12:12:12.053Z,18.91
2018-04-16T12:15:14.605Z,18.77
2018-04-16T12:18:17.293Z,18.69
2018-04-16T12:21:19.775Z,18.54
2018-04-16T12:24:22.301Z,19.02
2018-04-16T12:27:24.778Z,19.16
2018-04-16T12:30:27.335Z,19.18
2018-04-16T12:33:29.814Z,18.72
2018-04-16T12:36:32.384Z,18.15
2018-04-16T12:39:34.886Z,18.20
2018-04-16T12:42:37.352Z,18.07
2018-04-16T12:45:39.831Z,18.38
2018-04-16T12:48:42.345Z,18.73
2018-04-16T12:51:44.829Z,18.95
2018-04-16T12:54:47.385Z,19.08
2018-04-16T12:57:49.849Z,19.50
2018-04-16T13:00:52.479Z,19.13
2018-04-16T13:03:54.939Z,19.47
2018-04-16T13:06:57.415Z,18.73
2018-04-16T13:09:59.926Z,19.38
2018-04-16T13:13:02.577Z,19.54
2018-04-16T13:16:05.085Z,19.75
2018-04-16T13:19:07.618Z,19.86
2018-04-16T13:22:10.115Z,19.39
2018-04-16T13:25:12.626Z,19.99
2018-04-16T13:28:15.093Z,19.60
2018-04-16T13:31:17.585Z,19.55
2018-04-16T13:34:20.116Z,19.52
2018-04-16T13:37:22.577Z,19.68
2018-04-16T13:40:25.144Z,19.69
2018-04-16T13:43:27.666Z,19.65
2018-04-16T13:46:30.260Z,20.07
2018-04-16T13:49:32.701Z,20.24
2018-04-16T13:52:35.282Z,19.71
2018-04-16T13:55:37.770Z,19.74
2018-04-16T13:58:40.280Z,19.73
2018-04-16T14:01:42.797Z,19.59
2018-04-16T14:04:45.430Z,20.09
2018-04-16T14:07:47.994Z,19.77
2018-04-16T14:10:50.470Z,19.69
2018-04-16T14:13:52.980Z,19.99
2018-04-16T14:16:55.449Z,19.44
2018-04-16T14:19:57.940Z,19.59
2018-04-16T14:23:00.485Z,19.79
2018-04-16T14:26:03.049Z,19.29
2018-04-16T14:29:05.532Z,18.85
2018-04-16T14:32:08.095Z,18.99
2018-04-16T14:35:10.609Z,18.72
2018-04-16T14:38:13.131Z,18.50
2018-04-16T14:41:15.660Z,18.48
2018-04-16T14:44:18.215Z,18.66
2018-04-16T14:47:20.905Z,18.95
2018-04-16T14:50:32.529Z,18.98
2018-04-16T14:53:35.387Z,19.12
2018-04-16T14:56:37.965Z,19.38
2018-04-16T14:59:40.386Z,18.74
2018-04-16T15:02:42.934Z,18.76
2018-04-16T15:05:45.517Z,18.47
2018-04-16T15:08:47.990Z,18.84
2018-04-16T15:11:50.597Z,18.51
2018-04-16T15:14:53.122Z,18.27
2018-04-16T15:17:55.646Z,18.25
2018-04-16T15:20:58.165Z,18.20
2018-04-16T15:24:00.640Z,18.21
2018-04-16T15:27:04.374Z,18.05
2018-04-16T15:30:06.856Z,17.64
2018-04-16T15:33:09.360Z,17.53
2018-04-16T15:36:11.963Z,17.54
2018-04-16T15:39:14.463Z,17.79
2018-04-16T15:42:16.992Z,18.13
2018-04-16T15:45:20.739Z,18.43
2018-04-16T15:48:23.217Z,18.61
2018-04-16T15:51:25.715Z,18.50
2018-04-16T15:54:28.210Z,18.53
2018-04-16T15:57:30.725Z,18.21
2018-04-16T16:00:33.280Z,18.27
2018-04-16T16:03:35.843Z,18.08
2018-04-16T16:06:38.293Z,17.94
2018-04-16T16:09:40.796Z,18.20
2018-04-16T16:12:43.277Z,17.83
2018-04-16T16:15:45.808Z,17.65
2018-04-16T16:18:48.349Z,17.49
2018-04-16T16:21:50.905Z,17.35
2018-04-16T16:24:53.473Z,17.54
2018-04-16T16:27:55.930Z,17.63
2018-04-16T16:30:58.496Z,17.36
2018-04-16T16:34:01.019Z,17.15
2018-04-16T16:37:03.554Z,17.11
2018-04-16T16:40:06.042Z,16.94
2018-04-16T16:43:08.624Z,16.94
2018-04-16T16:46:11.158Z,17.03
2018-04-16T16:49:13.713Z,16.95
2018-04-16T16:52:17.302Z,17.00
2018-04-16T16:55:19.897Z,16.92
2018-04-16T16:58:22.447Z,16.95
2018-04-16T17:01:25.151Z,17.00
2018-04-16T17:04:27.817Z,17.15
2018-04-16T17:07:30.310Z,16.88
2018-04-16T17:10:32.846Z,16.86
2018-04-16T17:13:35.430Z,16.56
2018-04-16T17:16:37.935Z,16.52
2018-04-16T17:19:40.436Z,16.45
2018-04-16T17:22:43.066Z,16.28
2018-04-16T17:25:45.641Z,16.31
2018-04-16T17:28:48.218Z,16.30
2018-04-16T17:31:50.856Z,16.14
2018-04-16T17:34:53.381Z,16.06
2018-04-16T17:37:55.909Z,16.08
2018-04-16T17:40:58.502Z,16.18
2018-04-16T17:44:01.043Z,16.12
2018-04-16T17:47:03.638Z,16.21
2018-04-16T17:50:06.151Z,16.25
2018-04-16T17:53:08.649Z,16.34
2018-04-16T17:56:11.254Z,16.43
2018-04-16T17:59:13.757Z,16.36
2018-04-16T18:02:16.363Z,15.85
2018-04-16T18:05:18.973Z,15.67
2018-04-16T18:08:21.505Z,15.46
2018-04-16T18:11:24.091Z,15.21
2018-04-16T18:14:26.647Z,14.96
2018-04-16T18:17:29.288Z,14.80
2018-04-16T18:20:31.890Z,14.62
2018-04-16T18:23:34.414Z,14.44
2018-04-16T18:26:36.931Z,14.28
2018-04-16T18:32:48.248Z,13.96
2018-04-16T18:35:50.837Z,13.85
2018-04-16T18:38:53.347Z,13.71
2018-04-16T18:41:55.884Z,13.63
2018-04-16T18:44:58.529Z,13.51
2018-04-16T18:48:01.057Z,13.41
2018-04-16T18:51:03.583Z,13.34
2018-04-16T18:54:06.064Z,13.25
2018-04-16T18:57:08.683Z,13.26
2018-04-16T19:00:11.253Z,13.19
2018-04-16T19:03:13.789Z,13.14
2018-04-16T19:06:16.380Z,13.11
2018-04-16T19:09:18.895Z,13.16
2018-04-16T19:12:21.433Z,13.21
2018-04-16T19:15:23.966Z,13.34
2018-04-16T19:18:26.504Z,13.39
2018-04-16T19:21:34.561Z,13.38
2018-04-16T19:24:37.096Z,13.46
2018-04-16T19:33:13.211Z,13.53
2018-04-16T19:36:15.813Z,13.55
2018-04-16T19:39:18.360Z,13.61
2018-04-16T19:42:26.449Z,13.56
2018-04-16T19:45:29.005Z,13.52
2018-04-16T19:48:36.987Z,13.41
2018-04-16T19:51:39.464Z,13.31
2018-04-16T19:54:41.964Z,13.18
2018-04-16T19:57:50.322Z,13.07
2018-04-16T20:00:52.808Z,12.96
2018-04-16T20:04:00.228Z,12.89
2018-04-16T20:07:02.798Z,12.77
2018-04-16T20:10:05.341Z,12.70
2018-04-16T20:13:07.898Z,12.74
2018-04-16T20:16:10.427Z,12.70
2018-04-16T20:19:13.020Z,12.67
2018-04-16T20:22:15.508Z,12.58
2018-04-16T20:25:18.139Z,12.53
2018-04-16T20:28:20.720Z,12.47
2018-04-16T20:31:23.220Z,12.38
2018-04-16T20:34:25.731Z,12.33
2018-04-16T20:37:28.245Z,12.29
2018-04-16T20:40:30.730Z,12.26
2018-04-16T20:43:33.299Z,12.23
2018-04-16T20:46:35.769Z,12.18
2018-04-16T20:49:38.321Z,12.20
2018-04-16T20:52:40.769Z,12.16
2018-04-16T20:55:43.276Z,12.07
2018-04-16T20:58:45.821Z,11.99
2018-04-16T21:01:48.299Z,11.92
2018-04-16T21:04:50.779Z,11.79
2018-04-16T21:07:53.362Z,11.78
2018-04-16T21:10:55.894Z,11.72
2018-04-16T21:13:58.383Z,11.62
2018-04-16T21:17:00.911Z,11.61
2018-04-16T21:20:03.412Z,11.62
2018-04-16T21:23:05.938Z,11.59
2018-04-16T21:26:08.448Z,11.49
2018-04-16T21:29:10.981Z,11.41
2018-04-16T21:32:13.494Z,11.36
2018-04-16T21:35:16.010Z,11.33
2018-04-16T21:38:18.509Z,11.25
2018-04-16T21:41:21.005Z,11.17
2018-04-16T21:44:23.560Z,11.18
2018-04-16T21:47:26.019Z,11.17
2018-04-16T21:50:28.550Z,11.16
2018-04-16T21:53:31.068Z,11.22
2018-04-16T21:56:33.528Z,11.25
2018-04-16T21:59:36.059Z,11.26
2018-04-16T22:02:38.540Z,11.23
2018-04-16T22:05:41.033Z,11.16
2018-04-16T22:08:43.463Z,11.12
2018-04-16T22:11:45.946Z,11.01
2018-04-16T22:14:48.408Z,10.90
2018-04-16T22:17:51.411Z,10.86
2018-04-16T22:20:53.869Z,10.88
2018-04-16T22:23:56.339Z,10.81
2018-04-16T22:26:58.839Z,10.72
2018-04-16T22:30:01.319Z,10.67
2018-04-16T22:33:03.918Z,10.58
2018-04-16T22:36:06.411Z,10.54
2018-04-16T22:39:08.918Z,10.49
2018-04-16T22:42:11.404Z,10.41
2018-04-16T22:45:13.945Z,10.39
2018-04-16T22:48:16.428Z,10.36
2018-04-16T22:51:18.939Z,10.25
2018-04-16T22:54:21.394Z,10.18
2018-04-16T22:57:23.974Z,10.11
2018-04-16T23:00:26.465Z,10.01
2018-04-16T23:03:28.909Z,9.96
2018-04-16T23:06:31.425Z,9.97
2018-04-16T23:09:33.926Z,9.93
2018-04-16T23:12:36.420Z,9.90
2018-04-16T23:15:38.917Z,9.85
2018-04-16T23:18:41.390Z,9.81
2018-04-16T23:21:43.994Z,9.74
2018-04-16T23:24:46.484Z,9.65
2018-04-16T23:27:48.950Z,9.63
2018-04-16T23:30:51.465Z,9.64
2018-04-16T23:33:53.941Z,9.60
2018-04-16T23:36:56.583Z,9.56
2018-04-16T23:39:59.062Z,9.52
2018-04-16T23:43:01.514Z,9.49
2018-04-16T23:46:04.060Z,9.44
2018-04-16T23:49:06.552Z,9.47
2018-04-16T23:52:09.030Z,9.41
2018-04-16T23:55:11.463Z,9.37
2018-04-16T23:58:13.982Z,9.35
